Latest Weather Observations for Hamilton

IDV60801

Issued at 6:12 am EDT Saturday 19 October 2019 (issued every 10 minutes, with the page automatically refreshed every 10 minutes)

About weather observations | Map of weather stations | Latest weather observations for VIC | Other Formats
Station Details ID: 090173 Name: HAMILTON AIRPORT Lat: -37.65 Lon: 142.06 Height: 241.1 m
Data from the previous 72 hours. | See also: Recent months at Hamilton
Date/Time
EDT
Temp
°C
App
Temp
°C
Dew
Point
°C
Rel
Hum
%
Delta-T
°C
Wind Press
QNH
hPa
Press
MSL
hPa
Rain since
9am
mm
Dir  Spd
km/h
Gust
km/h
Spd
kts
Gust
kts
19/06:00am 6.0 1.3 3.3 83 1.1 WNW 17 20 9 11 1014.1 1014.1 2.4
19/05:30am 6.0 1.9 4.2 88 0.8 WNW 15 22 8 12 1013.8 1013.8 2.4
19/05:00am 5.9 1.8 4.4 90 0.7 NW 15 19 8 10 1013.7 1013.7 2.4
19/04:30am 6.7 1.7 4.4 85 1.0 WNW 20 26 11 14 1013.6 1013.6 2.4
19/04:00am 6.6 3.0 5.1 90 0.7 WNW 13 17 7 9 1013.7 1013.7 2.4
19/03:30am 6.4 2.4 4.9 90 0.7 WNW 15 20 8 11 1013.7 1013.7 2.4
19/03:12am 6.9 3.0 5.4 90 0.7 WNW 15 20 8 11 1013.7 1013.7 2.4
19/03:00am 6.9 2.7 5.5 91 0.6 W 17 22 9 12 1013.7 1013.7 2.4
19/02:40am 7.0 3.3 6.3 95 0.3 NW 15 20 8 11 1013.9 1013.9 2.4
19/02:30am 6.9 3.2 6.2 95 0.3 NW 15 19 8 10 1013.8 1013.8 2.4
19/02:00am 6.3 2.8 5.3 93 0.4 NW 13 15 7 8 1013.7 1013.7 2.4
19/01:30am 7.1 3.7 5.9 92 0.5 NW 13 17 7 9 1013.9 1013.9 2.4
19/01:00am 7.3 3.1 5.8 90 0.7 WNW 17 20 9 11 1014.0 1014.0 2.4
19/12:30am 7.3 4.0 6.4 94 0.4 WNW 13 17 7 9 1014.1 1014.1 2.4
19/12:00am 7.0 3.7 6.3 95 0.3 WNW 13 17 7 9 1014.1 1014.1 2.4
 
Date/Time
EDT
Temp
°C
App
Temp
°C
Dew
Point
°C
Rel
Hum
%
Delta-T
°C
Wind Press
QNH
hPa
Press
MSL
hPa
Rain since
9am
mm
Dir  Spd
km/h
Gust
km/h
Spd
kts
Gust
kts
18/11:30pm 6.8 3.4 5.9 94 0.4 NW 13 17 7 9 1014.0 1014.0 2.4
18/11:00pm 6.9 3.1 5.8 93 0.5 WNW 15 19 8 10 1014.2 1014.2 2.4
18/10:30pm 6.9 3.0 5.5 91 0.6 WNW 15 19 8 10 1014.4 1014.4 2.4
18/10:00pm 8.4 3.9 6.2 86 1.0 WNW 19 26 10 14 1014.4 1014.4 2.2
18/09:30pm 9.1 4.2 5.1 76 1.8 W 20 30 11 16 1014.2 1014.2 2.2
18/09:00pm 8.6 4.2 4.6 76 1.8 W 17 22 9 12 1013.9 1013.9 2.2
18/08:30pm 9.3 3.6 5.1 75 1.9 W 24 35 13 19 1013.6 1013.6 2.2
18/08:00pm 10.2 5.1 6.0 75 2.0 W 22 30 12 16 1013.1 1013.1 2.2
18/07:30pm 10.7 5.5 7.2 79 1.7 W 24 32 13 17 1013.0 1013.0 2.2
18/07:00pm 10.6 5.1 7.7 82 1.4 W 26 35 14 19 1012.6 1012.6 2.2
18/06:34pm 10.1 3.6 8.2 88 0.9 W 32 44 17 24 1012.2 1012.1 2.2
18/06:30pm 10.1 3.4 8.2 88 0.9 W 33 44 18 24 1012.1 1012.0 2.2
18/06:18pm 10.1 3.6 8.2 88 0.9 W 32 52 17 28 1011.9 1011.8 2.2
18/06:00pm 11.1 5.6 9.2 88 1.0 WNW 28 37 15 20 1011.6 1011.5 2.2
18/05:30pm 11.0 5.6 9.4 90 0.8 WNW 28 39 15 21 1011.8 1011.7 2.0
18/05:27pm 11.0 5.2 9.6 91 0.7 WNW 30 48 16 26 1011.7 1011.6 2.0
18/05:11pm 10.4 4.2 9.2 92 0.6 W 32 46 17 25 1011.6 1011.5 2.0
18/05:00pm 10.6 3.1 9.4 92 0.6 W 39 61 21 33 1011.6 1011.5 2.0
18/04:48pm 11.1 4.8 8.8 86 1.2 WNW 32 63 17 34 1011.3 1011.2 1.2
18/04:47pm 11.7 6.2 9.3 85 1.2 WNW 28 44 15 24 1011.4 1011.3 1.0
18/04:44pm 12.6 7.3 9.8 83 1.4 WNW 28 35 15 19 1011.1 1011.0 0.2
18/04:30pm 13.1 6.0 9.4 78 1.9 NW 37 56 20 30 1010.5 1010.5 0.0
18/04:17pm 14.5 7.6 8.9 69 2.9 NW 35 54 19 29 1010.4 1010.4 0.0
18/04:00pm 13.8 6.7 8.0 68 2.9 NW 35 50 19 27 1010.5 1010.5 0.0
18/03:57pm 13.9 6.9 8.5 70 2.7 NW 35 54 19 29 1010.6 1010.6 0.0
18/03:30pm 14.3 5.6 7.6 64 3.4 NW 43 54 23 29 1010.9 1010.8 0.0
18/03:18pm 14.1 6.5 7.6 65 3.2 NW 37 56 20 30 1011.1 1011.0 0.0
18/03:00pm 14.1 5.3 7.2 63 3.4 NW 43 57 23 31 1011.2 1011.1 0.0
18/02:47pm 14.4 6.0 7.2 62 3.6 NW 41 63 22 34 1011.4 1011.3 0.0
18/02:30pm 13.8 6.4 6.9 63 3.4 NW 35 52 19 28 1011.7 1011.6 0.0
18/02:02pm 13.8 5.3 6.9 63 3.4 NW 41 59 22 32 1011.8 1011.7 0.0
18/02:00pm 13.7 4.8 7.0 64 3.3 NW 43 59 23 32 1011.8 1011.7 0.0
18/01:30pm 13.3 4.3 6.2 62 3.4 NW 43 61 23 33 1012.1 1012.0 0.0
18/01:06pm 14.2 5.7 6.8 61 3.6 NW 41 59 22 32 1012.0 1011.9 0.0
18/01:00pm 14.2 5.1 6.8 61 3.6 NNW 44 61 24 33 1012.0 1011.9 0.0
18/12:56pm 13.9 4.8 7.0 63 3.4 NW 44 63 24 34 1012.1 1012.0 0.0
18/12:30pm 14.3 5.8 7.1 62 3.6 NW 41 56 22 30 1012.3 1012.2 0.0
18/12:00pm 13.5 4.6 6.8 64 3.3 NW 43 61 23 33 1012.6 1012.6 0.0
18/11:52am 13.5 5.6 6.1 61 3.6 NW 37 56 20 30 1012.7 1012.7 0.0
18/11:30am 13.1 5.1 7.3 68 2.9 NW 39 50 21 27 1013.1 1013.1 0.0
18/11:00am 11.6 3.4 6.7 72 2.4 NW 39 56 21 30 1013.4 1013.4 0.0
18/10:56am 12.2 4.5 7.3 72 2.4 NW 37 56 20 30 1013.4 1013.4 0.0
18/10:30am 11.5 2.5 6.6 72 2.4 NW 43 56 23 30 1013.4 1013.4 0.0
18/10:25am 11.2 3.8 6.7 74 2.2 NW 35 54 19 29 1013.5 1013.5 0.0
18/10:00am 11.1 3.4 7.0 76 2.0 NNW 37 50 20 27 1013.6 1013.6 0.0
18/09:30am 9.8 1.5 6.0 77 1.8 NNW 39 50 21 27 1013.8 1013.8 0.0
18/09:00am 9.3 1.7 5.9 79 1.6 NNW 35 44 19 24 1013.9 1013.9 1.0
18/08:30am 8.3 0.6 5.2 81 1.4 NNW 35 44 19 24 1014.0 1014.0 1.0
18/08:00am 7.2 0.3 4.7 84 1.1 NNW 30 41 16 22 1014.1 1014.1 1.0
18/07:30am 6.9 0.7 4.4 84 1.1 NNW 26 33 14 18 1014.1 1014.1 1.0
18/07:00am 6.9 0.3 4.2 83 1.2 NNW 28 35 15 19 1014.2 1014.2 1.0
18/06:30am 6.9 -0.1 4.0 82 1.3 NNW 30 37 16 20 1013.9 1013.9 1.0
18/06:00am 7.1 0.1 4.1 81 1.3 NNW 30 41 16 22 1013.7 1013.7 1.0
18/05:30am 7.2 1.0 4.2 81 1.3 NNW 26 35 14 19 1014.0 1014.0 1.0
18/05:00am 6.9 1.4 4.2 83 1.2 NNW 22 30 12 16 1014.1 1014.1 1.0
18/04:30am 6.5 1.0 3.8 83 1.2 NNW 22 26 12 14 1014.4 1014.4 1.0
18/04:00am 7.0 1.9 4.0 81 1.3 NNW 20 24 11 13 1014.5 1014.5 1.0
18/03:30am 8.0 2.9 4.0 76 1.8 NNW 20 24 11 13 1015.0 1015.0 1.0
18/03:00am 8.1 3.2 4.1 76 1.8 NNW 19 24 10 13 1015.5 1015.4 1.0
18/02:30am 8.4 3.9 4.0 74 1.9 NNW 17 22 9 12 1015.8 1015.7 1.0
18/02:00am 8.0 3.4 3.7 74 1.9 NNW 17 22 9 12 1016.1 1016.0 1.0
18/01:30am 7.9 3.3 3.6 74 1.9 NNW 17 19 9 10 1016.5 1016.5 1.0
18/01:00am 7.8 3.2 3.7 75 1.8 NNW 17 19 9 10 1016.5 1016.5 1.0
18/12:30am 7.6 3.3 3.3 74 1.9 NNW 15 20 8 11 1016.7 1016.7 1.0
18/12:00am 6.6 2.3 3.0 78 1.5 NNW 15 17 8 9 1016.8 1016.8 1.0
 
Date/Time
EDT
Temp
°C
App
Temp
°C
Dew
Point
°C
Rel
Hum
%
Delta-T
°C
Wind Press
QNH
hPa
Press
MSL
hPa
Rain since
9am
mm
Dir  Spd
km/h
Gust
km/h
Spd
kts
Gust
kts
17/11:30pm 7.5 3.2 3.2 74 1.8 NNW 15 19 8 10 1016.9 1016.9 1.0
17/11:00pm 8.2 4.2 2.9 69 2.3 NW 13 17 7 9 1017.0 1017.0 1.0
17/10:30pm 7.9 3.8 4.1 77 1.7 NW 15 19 8 10 1017.2 1017.2 1.0
17/10:00pm 9.1 5.4 4.7 74 2.0 WNW 13 19 7 10 1017.2 1017.2 1.0
17/09:30pm 9.1 5.4 4.7 74 2.0 NW 13 19 7 10 1017.1 1017.1 1.0
17/09:00pm 9.2 5.5 4.4 72 2.1 WNW 13 17 7 9 1016.9 1016.9 1.0
17/08:30pm 9.4 5.3 4.2 70 2.3 W 15 19 8 10 1016.8 1016.8 1.0
17/08:00pm 9.7 4.8 4.1 68 2.5 WNW 19 26 10 14 1016.6 1016.6 1.0
17/07:30pm 9.9 4.8 3.9 66 2.7 W 20 30 11 16 1016.5 1016.5 1.0
17/07:00pm 10.2 4.6 3.5 63 3.0 W 22 30 12 16 1016.1 1016.0 1.0
17/06:30pm 10.6 3.1 3.6 62 3.1 W 32 43 17 23 1015.7 1015.6 1.0
17/06:00pm 10.8 5.1 4.9 67 2.7 W 24 32 13 17 1015.4 1015.3 1.0
17/05:30pm 11.2 4.7 4.9 65 2.9 W 28 41 15 22 1014.8 1014.8 1.0
17/05:00pm 11.0 4.0 6.0 71 2.4 WSW 32 48 17 26 1014.4 1014.4 1.0
17/04:58pm 11.0 4.2 5.3 68 2.6 WSW 30 48 16 26 1014.3 1014.3 1.0
17/04:30pm 11.4 4.4 5.9 69 2.6 WSW 32 44 17 24 1014.1 1014.1 1.0
17/04:00pm 12.5 4.2 6.3 66 3.0 W 39 50 21 27 1013.9 1013.9 1.0
17/03:30pm 12.1 3.0 5.9 66 2.9 WSW 43 52 23 28 1013.7 1013.7 1.0
17/03:20pm 11.8 3.9 6.1 68 2.7 W 37 56 20 30 1013.6 1013.6 1.0
17/03:00pm 12.1 3.5 6.6 69 2.7 WSW 41 54 22 29 1013.6 1013.6 1.0
17/02:30pm 12.1 3.0 6.6 69 2.7 WSW 44 59 24 32 1013.4 1013.4 1.0
17/02:00pm 12.4 3.6 7.1 70 2.6 WSW 43 56 23 30 1013.1 1013.1 1.0
17/01:34pm 11.6 3.5 7.1 74 2.2 WSW 39 57 21 31 1012.8 1012.8 1.0
17/01:30pm 12.0 4.5 7.9 76 2.0 WSW 37 50 20 27 1012.9 1012.9 1.0
17/01:13pm 10.0 2.0 7.3 83 1.3 WSW 39 57 21 31 1012.9 1012.9 1.0
17/01:00pm 11.1 2.5 6.6 74 2.2 WSW 41 52 22 28 1012.5 1012.4 1.0
17/12:30pm 10.0 3.2 6.9 81 1.5 WSW 32 43 17 23 1012.7 1012.7 0.8
17/12:00pm 9.5 1.5 5.9 78 1.7 W 37 56 20 30 1012.3 1012.2 0.6
17/11:33am 8.9 1.3 6.0 82 1.3 W 35 54 19 29 1012.1 1012.0 0.6
17/11:30am 8.9 0.9 5.6 80 1.5 W 37 52 20 28 1012.1 1012.0 0.6
17/11:00am 9.1 2.0 5.7 79 1.6 W 32 41 17 22 1011.8 1011.7 0.2
17/10:44am 9.9 1.3 4.7 70 2.4 W 39 57 21 31 1011.7 1011.6 0.0
17/10:30am 10.6 2.0 4.5 66 2.8 W 39 54 21 29 1011.2 1011.1 0.0
17/10:01am 10.1 2.8 5.5 73 2.1 W 33 52 18 28 1011.1 1011.0 0.0
17/10:00am 9.9 2.1 5.1 72 2.2 W 35 52 19 28 1011.1 1011.0 0.0
17/09:30am 9.4 2.1 4.6 72 2.2 W 32 48 17 26 1010.7 1010.7 0.0
17/09:00am 8.8 1.9 4.4 74 2.0 WNW 30 41 16 22 1010.5 1010.5 3.0
17/08:30am 8.0 1.9 4.6 79 1.5 WNW 26 35 14 19 1010.3 1010.3 3.0
17/08:00am 6.9 1.2 4.7 86 1.0 WNW 24 32 13 17 1010.0 1010.0 3.0
17/07:30am 6.2 0.4 4.5 89 0.7 W 24 32 13 17 1009.8 1009.8 3.0
17/07:00am 6.0 0.2 4.6 91 0.6 WNW 24 37 13 20 1009.3 1009.3 3.0
17/06:50am 6.1 0.0 4.7 91 0.6 WNW 26 35 14 19 1009.2 1009.2 3.0
17/06:30am 6.1 -0.4 4.7 91 0.6 WNW 28 43 15 23 1008.9 1008.8 3.0
17/06:24am 6.1 0.0 4.7 91 0.6 WNW 26 39 14 21 1008.8 1008.7 3.0
17/06:00am 6.0 -0.1 4.6 91 0.6 WNW 26 35 14 19 1008.6 1008.5 3.0
17/05:30am 6.0 0.2 4.5 90 0.7 W 24 32 13 17 1008.2 1008.1 2.8
17/05:26am 6.0 0.2 4.5 90 0.7 W 24 32 13 17 1008.1 1008.0 2.8
17/05:07am 6.3 0.3 5.1 92 0.5 W 26 44 14 24 1008.1 1008.0 2.8
17/05:00am 6.3 0.6 4.9 91 0.6 WNW 24 37 13 20 1008.1 1008.0 2.8
17/04:30am 6.4 0.3 4.7 89 0.7 WNW 26 35 14 19 1007.9 1007.8 2.6
17/04:22am 6.5 0.4 4.8 89 0.8 WNW 26 35 14 19 1007.9 1007.8 2.6
17/04:00am 6.5 0.0 4.7 88 0.8 WNW 28 37 15 20 1008.0 1007.9 2.6
17/03:48am 6.9 0.9 5.1 88 0.8 WNW 26 37 14 20 1008.0 1007.9 2.6
17/03:30am 6.8 1.1 4.8 87 0.9 WNW 24 32 13 17 1008.0 1007.9 2.6
17/03:00am 7.1 1.4 5.1 87 0.9 NW 24 35 13 19 1008.1 1008.0 2.2
17/02:30am 7.2 1.7 5.8 91 0.6 NW 24 30 13 16 1008.3 1008.2 2.0
17/02:00am 6.8 2.5 5.3 90 0.7 NNW 17 22 9 12 1008.6 1008.5 2.0
17/01:30am 7.0 2.7 5.2 88 0.8 NW 17 22 9 12 1008.8 1008.7 2.0
17/01:00am 7.9 4.2 6.2 89 0.8 NW 15 20 8 11 1008.9 1008.8 2.0
17/12:30am 8.1 4.0 6.2 88 0.9 NW 17 20 9 11 1009.2 1009.2 2.0
17/12:00am 8.3 4.0 6.8 90 0.7 WNW 19 22 10 12 1009.4 1009.4 2.0
 
Date/Time
EDT
Temp
°C
App
Temp
°C
Dew
Point
°C
Rel
Hum
%
Delta-T
°C
Wind Press
QNH
hPa
Press
MSL
hPa
Rain since
9am
mm
Dir  Spd
km/h
Gust
km/h
Spd
kts
Gust
kts
16/11:30pm 8.6 3.4 7.1 90 0.7 WNW 24 39 13 21 1009.4 1009.4 2.0
16/11:20pm 8.9 2.9 7.0 88 0.9 NW 28 46 15 25 1009.5 1009.5 2.0
16/11:00pm 9.4 3.3 6.7 83 1.3 NW 28 37 15 20 1009.3 1009.3 1.2
16/10:30pm 10.4 5.8 5.4 71 2.3 NNW 19 22 10 12 1009.2 1009.2 0.8
16/10:00pm 10.6 6.0 5.4 70 2.4 NNW 19 24 10 13 1009.2 1009.2 0.8
16/09:30pm 10.3 6.4 5.5 72 2.2 NNW 15 19 8 10 1009.5 1009.5 0.8
16/09:00pm 9.5 5.2 5.1 74 2.0 WNW 17 19 9 10 1009.7 1009.7 0.8
16/08:30pm 9.5 5.8 4.5 71 2.3 WNW 13 15 7 8 1009.6 1009.6 0.8
16/08:00pm 11.4 7.4 4.8 64 3.0 W 15 20 8 11 1009.4 1009.4 0.8
16/07:30pm 12.6 8.2 4.8 59 3.6 W 17 20 9 11 1009.1 1009.1 0.8
16/07:00pm 13.8 8.2 5.2 56 4.1 W 24 33 13 18 1009.1 1009.1 0.8
16/06:30pm 14.5 8.9 5.3 54 4.4 WSW 24 35 13 19 1008.9 1008.8 0.8
16/06:00pm 15.9 10.4 7.4 57 4.3 W 26 35 14 19 1008.6 1008.5 0.8
16/05:30pm 15.9 11.5 7.4 57 4.3 W 20 32 11 17 1008.3 1008.2 0.8
16/05:00pm 16.0 10.9 7.5 57 4.3 W 24 32 13 17 1008.2 1008.1 0.8
16/04:30pm 16.0 11.6 7.2 56 4.4 W 20 30 11 16 1008.3 1008.2 0.8
16/04:00pm 16.5 12.9 9.7 64 3.6 W 19 24 10 13 1008.3 1008.2 0.8
16/03:30pm 17.4 13.8 10.5 64 3.7 W 20 30 11 16 1008.6 1008.5 0.8
16/03:00pm 14.8 10.7 8.7 67 3.1 W 20 28 11 15 1009.2 1009.2 0.8
16/02:30pm 15.1 11.0 8.6 65 3.3 WNW 20 30 11 16 1009.6 1009.6 0.8
16/02:00pm 15.8 11.9 10.8 72 2.7 WNW 22 32 12 17 1009.7 1009.7 0.6
16/01:30pm 13.6 9.9 9.6 77 2.1 WNW 19 26 10 14 1009.9 1009.9 0.6
16/01:03pm 12.3 8.9 10.5 89 0.9 W 19 24 10 13 1010.1 1010.1 0.4
16/01:00pm 12.3 8.7 10.5 89 0.9 W 20 26 11 14 1010.1 1010.1 0.4
16/12:37pm 13.6 9.7 10.8 83 1.5 WSW 22 32 12 17 1010.2 1010.2 0.2
16/12:30pm 13.7 10.4 11.6 87 1.1 W 20 26 11 14 1010.2 1010.2 0.2
16/12:12pm 13.1 9.7 10.6 85 1.3 W 19 26 10 14 1010.4 1010.4 0.2
16/12:00pm 13.0 9.8 11.2 89 1.0 W 19 24 10 13 1010.4 1010.4 0.2
16/11:48am 13.4 9.7 10.0 80 1.8 WNW 20 26 11 14 1010.4 1010.4 0.0
16/11:37am 14.0 10.7 10.8 81 1.7 WNW 19 22 10 12 1010.6 1010.6 0.0
16/11:30am 13.7 10.4 10.9 83 1.5 W 19 22 10 12 1010.6 1010.6 0.0
16/11:00am 13.3 9.8 11.0 86 1.2 WNW 20 26 11 14 1010.9 1010.8 0.0
16/10:30am 12.2 8.9 10.9 92 0.7 W 19 24 10 13 1011.1 1011.0 0.0
16/10:00am 11.3 8.7 10.8 97 0.3 W 15 20 8 11 1011.1 1011.0 0.0
16/09:30am 10.6 7.8 10.1 97 0.3 W 15 20 8 11 1011.1 1011.0 0.0
16/09:00am 11.1 8.8 10.6 97 0.3 WNW 13 17 7 9 1010.9 1010.8 0.6
16/08:30am 10.9 8.6 10.6 98 0.2 NW 13 15 7 8 1010.9 1010.8 0.6
16/08:23am 10.7 8.8 10.5 99 0.1 NW 11 15 6 8 1010.9 1010.8 0.6
16/08:00am 10.5 8.5 10.3 99 0.1 NNW 11 15 6 8 1011.1 1011.0 0.6
16/07:30am 10.3 9.0 10.1 99 0.1 N 7 9 4 5 1010.5 1010.5 0.6
16/07:00am 10.2 8.9 10.1 99 0.1 NNE 7 9 4 5 1010.4 1010.4 0.6
16/06:30am 10.3 9.0 10.1 99 0.1 NE 7 9 4 5 1011.0 1010.9 0.6

Other formats

Comma delimited format used in spreadsheet applications
http://www.bom.gov.au/fwo/IDV60801/IDV60801.94829.axf

JavaScript Object Notation format (JSON) in row-major order
http://www.bom.gov.au/fwo/IDV60801/IDV60801.94829.json

Data quality

Most of these data are generated automatically and are frequently updated. Quality checks on data are not normally performed. It is possible for incorrect values to appear. Refer to information at About Latest Weather Observations and please check the disclaimer before using these data.